sensor_id;sensor_type;location;lat;lon;timestamp;temperature;humidity
20815;DHT22;10568;48.176;16.316;2023-04-05T00:01:36;-0.70;99.90
20815;DHT22;10568;48.176;16.316;2023-04-05T00:04:04;-0.70;99.90
20815;DHT22;10568;48.176;16.316;2023-04-05T00:06:30;-0.80;99.90
20815;DHT22;10568;48.176;16.316;2023-04-05T00:08:58;-0.80;99.90
20815;DHT22;10568;48.176;16.316;2023-04-05T00:11:29;-0.80;99.90
20815;DHT22;10568;48.176;16.316;2023-04-05T00:13:55;-0.80;99.90
20815;DHT22;10568;48.176;16.316;2023-04-05T00:16:21;-0.80;99.90
20815;DHT22;10568;48.176;16.316;2023-04-05T00:18:47;-0.80;99.90
20815;DHT22;10568;48.176;16.316;2023-04-05T00:21:20;-0.80;99.90
20815;DHT22;10568;48.176;16.316;2023-04-05T00:23:47;-0.80;99.90
20815;DHT22;10568;48.176;16.316;2023-04-05T00:26:13;-0.80;99.90
20815;DHT22;10568;48.176;16.316;2023-04-05T00:28:39;-0.80;99.90
20815;DHT22;10568;48.176;16.316;2023-04-05T00:31:05;-0.90;99.90
20815;DHT22;10568;48.176;16.316;2023-04-05T00:33:31;-0.90;99.90
20815;DHT22;10568;48.176;16.316;2023-04-05T00:35:56;-1.00;99.90
20815;DHT22;10568;48.176;16.316;2023-04-05T00:38:22;-1.00;99.90
20815;DHT22;10568;48.176;16.316;2023-04-05T00:40:48;-1.00;99.90
20815;DHT22;10568;48.176;16.316;2023-04-05T00:43:14;-1.10;99.90
20815;DHT22;10568;48.176;16.316;2023-04-05T00:45:40;-1.20;99.90
20815;DHT22;10568;48.176;16.316;2023-04-05T00:48:06;-1.20;99.90
20815;DHT22;10568;48.176;16.316;2023-04-05T00:50:33;-1.20;99.90
20815;DHT22;10568;48.176;16.316;2023-04-05T00:52:59;-1.30;99.90
20815;DHT22;10568;48.176;16.316;2023-04-05T00:55:26;-1.30;99.90
20815;DHT22;10568;48.176;16.316;2023-04-05T00:57:54;-1.30;99.90
20815;DHT22;10568;48.176;16.316;2023-04-05T01:00:21;-1.40;99.90
20815;DHT22;10568;48.176;16.316;2023-04-05T01:02:58;-1.40;99.90
20815;DHT22;10568;48.176;16.316;2023-04-05T01:08:18;-1.50;99.90
20815;DHT22;10568;48.176;16.316;2023-04-05T01:10:52;-1.60;99.90
20815;DHT22;10568;48.176;16.316;2023-04-05T01:13:18;-1.60;99.90
20815;DHT22;10568;48.176;16.316;2023-04-05T01:15:44;-1.70;99.90
20815;DHT22;10568;48.176;16.316;2023-04-05T01:18:10;-1.70;99.90
20815;DHT22;10568;48.176;16.316;2023-04-05T01:20:45;-1.70;99.90
20815;DHT22;10568;48.176;16.316;2023-04-05T01:26:21;-1.90;99.90
20815;DHT22;10568;48.176;16.316;2023-04-05T01:31:50;-2.00;99.90
20815;DHT22;10568;48.176;16.316;2023-04-05T01:37:04;-1.90;99.90
20815;DHT22;10568;48.176;16.316;2023-04-05T01:39:30;-2.00;99.90
20815;DHT22;10568;48.176;16.316;2023-04-05T01:41:59;-2.00;99.90
20815;DHT22;10568;48.176;16.316;2023-04-05T01:44:26;-2.00;99.90
20815;DHT22;10568;48.176;16.316;2023-04-05T01:46:52;-2.00;99.90
20815;DHT22;10568;48.176;16.316;2023-04-05T01:49:18;-2.10;99.90
20815;DHT22;10568;48.176;16.316;2023-04-05T01:51:44;-2.10;99.90
20815;DHT22;10568;48.176;16.316;2023-04-05T01:54:10;-2.10;99.90
20815;DHT22;10568;48.176;16.316;2023-04-05T01:56:35;-2.10;99.90
20815;DHT22;10568;48.176;16.316;2023-04-05T01:59:01;-2.10;99.90
20815;DHT22;10568;48.176;16.316;2023-04-05T02:01:27;-2.20;99.90
20815;DHT22;10568;48.176;16.316;2023-04-05T02:03:52;-2.20;99.90
20815;DHT22;10568;48.176;16.316;2023-04-05T02:06:18;-2.20;99.90
20815;DHT22;10568;48.176;16.316;2023-04-05T02:08:44;-2.10;99.90
20815;DHT22;10568;48.176;16.316;2023-04-05T02:11:10;-2.20;99.90
20815;DHT22;10568;48.176;16.316;2023-04-05T02:13:36;-2.10;99.90
20815;DHT22;10568;48.176;16.316;2023-04-05T02:16:01;-2.20;99.90
20815;DHT22;10568;48.176;16.316;2023-04-05T02:18:27;-2.20;99.90
20815;DHT22;10568;48.176;16.316;2023-04-05T02:21:06;-2.20;99.90
20815;DHT22;10568;48.176;16.316;2023-04-05T02:23:33;-2.20;99.90
20815;DHT22;10568;48.176;16.316;2023-04-05T02:26:00;-2.20;99.90
20815;DHT22;10568;48.176;16.316;2023-04-05T02:28:26;-2.20;99.90
20815;DHT22;10568;48.176;16.316;2023-04-05T02:30:51;-2.30;99.90
20815;DHT22;10568;48.176;16.316;2023-04-05T02:33:17;-2.20;99.90
20815;DHT22;10568;48.176;16.316;2023-04-05T02:35:43;-2.30;99.90
20815;DHT22;10568;48.176;16.316;2023-04-05T02:38:37;-2.30;99.90
20815;DHT22;10568;48.176;16.316;2023-04-05T02:41:03;-2.20;99.90
20815;DHT22;10568;48.176;16.316;2023-04-05T02:43:28;-2.30;99.90
20815;DHT22;10568;48.176;16.316;2023-04-05T02:45:54;-2.30;99.90
20815;DHT22;10568;48.176;16.316;2023-04-05T02:48:20;-2.20;99.90
20815;DHT22;10568;48.176;16.316;2023-04-05T02:50:50;-1.80;99.90
20815;DHT22;10568;48.176;16.316;2023-04-05T02:53:18;-2.30;99.90
20815;DHT22;10568;48.176;16.316;2023-04-05T02:55:54;-0.90;99.90
20815;DHT22;10568;48.176;16.316;2023-04-05T02:58:21;-2.30;99.90
20815;DHT22;10568;48.176;16.316;2023-04-05T03:00:49;-2.30;99.90
20815;DHT22;10568;48.176;16.316;2023-04-05T03:03:18;-2.30;99.90
20815;DHT22;10568;48.176;16.316;2023-04-05T03:05:45;-2.30;99.90
20815;DHT22;10568;48.176;16.316;2023-04-05T03:08:13;-2.40;99.90
20815;DHT22;10568;48.176;16.316;2023-04-05T03:10:46;-2.20;99.90
20815;DHT22;10568;48.176;16.316;2023-04-05T03:13:13;-2.40;99.90
20815;DHT22;10568;48.176;16.316;2023-04-05T03:15:40;-2.40;99.90
20815;DHT22;10568;48.176;16.316;2023-04-05T03:18:06;-2.40;99.90
20815;DHT22;10568;48.176;16.316;2023-04-05T03:20:47;-2.40;99.90
20815;DHT22;10568;48.176;16.316;2023-04-05T03:23:14;-2.50;99.90
20815;DHT22;10568;48.176;16.316;2023-04-05T03:25:40;-2.50;99.90
20815;DHT22;10568;48.176;16.316;2023-04-05T03:28:07;-2.50;99.90
20815;DHT22;10568;48.176;16.316;2023-04-05T03:30:36;-2.60;99.90
20815;DHT22;10568;48.176;16.316;2023-04-05T03:33:02;-2.60;99.90
20815;DHT22;10568;48.176;16.316;2023-04-05T03:35:29;-2.50;99.90
20815;DHT22;10568;48.176;16.316;2023-04-05T03:41:02;-2.50;99.90
20815;DHT22;10568;48.176;16.316;2023-04-05T03:43:27;-2.50;99.90
20815;DHT22;10568;48.176;16.316;2023-04-05T03:45:55;-2.50;99.90
20815;DHT22;10568;48.176;16.316;2023-04-05T03:48:21;-2.60;99.90
20815;DHT22;10568;48.176;16.316;2023-04-05T03:50:47;-2.50;99.90
20815;DHT22;10568;48.176;16.316;2023-04-05T03:53:13;-2.50;99.90
20815;DHT22;10568;48.176;16.316;2023-04-05T03:55:43;-2.50;99.90
20815;DHT22;10568;48.176;16.316;2023-04-05T03:58:14;-2.50;99.90
20815;DHT22;10568;48.176;16.316;2023-04-05T04:00:40;-2.60;99.90
20815;DHT22;10568;48.176;16.316;2023-04-05T04:03:06;-2.60;99.90
20815;DHT22;10568;48.176;16.316;2023-04-05T04:05:32;-2.50;99.90
20815;DHT22;10568;48.176;16.316;2023-04-05T04:08:04;-2.50;99.90
20815;DHT22;10568;48.176;16.316;2023-04-05T04:10:31;-2.50;99.90
20815;DHT22;10568;48.176;16.316;2023-04-05T04:12:57;-2.50;99.90
20815;DHT22;10568;48.176;16.316;2023-04-05T04:15:22;-2.50;99.90
20815;DHT22;10568;48.176;16.316;2023-04-05T04:17:48;-2.50;99.90
20815;DHT22;10568;48.176;16.316;2023-04-05T04:20:14;-2.50;99.90
20815;DHT22;10568;48.176;16.316;2023-04-05T04:22:40;-2.50;99.90
20815;DHT22;10568;48.176;16.316;2023-04-05T04:25:07;-2.50;99.90
20815;DHT22;10568;48.176;16.316;2023-04-05T04:27:40;-2.50;99.90
20815;DHT22;10568;48.176;16.316;2023-04-05T04:30:12;-2.60;99.90
20815;DHT22;10568;48.176;16.316;2023-04-05T04:32:39;-2.60;99.90
20815;DHT22;10568;48.176;16.316;2023-04-05T04:35:24;-2.60;99.90
20815;DHT22;10568;48.176;16.316;2023-04-05T04:38:01;-1.90;99.90
20815;DHT22;10568;48.176;16.316;2023-04-05T04:40:32;-2.60;99.90
20815;DHT22;10568;48.176;16.316;2023-04-05T04:43:08;-2.60;99.90
20815;DHT22;10568;48.176;16.316;2023-04-05T04:45:39;-2.60;99.90
20815;DHT22;10568;48.176;16.316;2023-04-05T04:48:06;-2.60;99.90
20815;DHT22;10568;48.176;16.316;2023-04-05T04:50:33;-2.60;99.90
20815;DHT22;10568;48.176;16.316;2023-04-05T04:53:00;-2.60;99.90
20815;DHT22;10568;48.176;16.316;2023-04-05T04:55:27;-2.50;99.90
20815;DHT22;10568;48.176;16.316;2023-04-05T04:57:54;-2.50;99.90
20815;DHT22;10568;48.176;16.316;2023-04-05T05:00:21;-2.50;99.90
20815;DHT22;10568;48.176;16.316;2023-04-05T05:02:49;-2.50;99.90
20815;DHT22;10568;48.176;16.316;2023-04-05T05:05:15;-2.50;99.90
20815;DHT22;10568;48.176;16.316;2023-04-05T05:07:41;-2.40;99.90
20815;DHT22;10568;48.176;16.316;2023-04-05T05:10:10;-2.30;99.90
20815;DHT22;10568;48.176;16.316;2023-04-05T05:12:37;-2.30;99.90
20815;DHT22;10568;48.176;16.316;2023-04-05T05:15:03;-2.30;99.90
20815;DHT22;10568;48.176;16.316;2023-04-05T05:17:29;-2.20;99.90
20815;DHT22;10568;48.176;16.316;2023-04-05T05:19:56;-2.20;99.90
20815;DHT22;10568;48.176;16.316;2023-04-05T05:22:25;-2.10;99.90
20815;DHT22;10568;48.176;16.316;2023-04-05T05:24:52;-2.00;99.90
20815;DHT22;10568;48.176;16.316;2023-04-05T05:27:18;-2.00;99.90
20815;DHT22;10568;48.176;16.316;2023-04-05T05:29:43;-1.90;99.90
20815;DHT22;10568;48.176;16.316;2023-04-05T05:32:33;-1.80;99.90
20815;DHT22;10568;48.176;16.316;2023-04-05T05:34:59;-1.50;99.90
20815;DHT22;10568;48.176;16.316;2023-04-05T05:37:31;0.20;99.90
20815;DHT22;10568;48.176;16.316;2023-04-05T05:39:57;1.70;99.90
20815;DHT22;10568;48.176;16.316;2023-04-05T05:42:23;2.00;99.90
20815;DHT22;10568;48.176;16.316;2023-04-05T05:44:49;2.70;99.90
20815;DHT22;10568;48.176;16.316;2023-04-05T05:47:14;2.80;98.70
20815;DHT22;10568;48.176;16.316;2023-04-05T05:49:40;3.20;98.90
20815;DHT22;10568;48.176;16.316;2023-04-05T05:52:09;2.60;98.70
20815;DHT22;10568;48.176;16.316;2023-04-05T05:54:35;2.40;99.20
20815;DHT22;10568;48.176;16.316;2023-04-05T05:57:00;2.30;98.90
20815;DHT22;10568;48.176;16.316;2023-04-05T05:59:27;2.20;98.50
20815;DHT22;10568;48.176;16.316;2023-04-05T06:01:53;2.60;98.70
20815;DHT22;10568;48.176;16.316;2023-04-05T06:04:19;3.20;97.60
20815;DHT22;10568;48.176;16.316;2023-04-05T06:06:45;3.20;96.60
20815;DHT22;10568;48.176;16.316;2023-04-05T06:09:12;3.90;96.40
20815;DHT22;10568;48.176;16.316;2023-04-05T06:11:39;3.70;94.40
20815;DHT22;10568;48.176;16.316;2023-04-05T06:14:04;4.30;94.20
20815;DHT22;10568;48.176;16.316;2023-04-05T06:16:55;5.00;93.20
20815;DHT22;10568;48.176;16.316;2023-04-05T06:19:21;4.30;92.10
20815;DHT22;10568;48.176;16.316;2023-04-05T06:21:47;4.60;93.30
20815;DHT22;10568;48.176;16.316;2023-04-05T06:24:13;4.80;93.20
20815;DHT22;10568;48.176;16.316;2023-04-05T06:26:38;4.60;92.10
20815;DHT22;10568;48.176;16.316;2023-04-05T06:29:04;3.90;94.00
20815;DHT22;10568;48.176;16.316;2023-04-05T06:31:33;3.60;93.70
20815;DHT22;10568;48.176;16.316;2023-04-05T06:34:00;4.00;94.40
20815;DHT22;10568;48.176;16.316;2023-04-05T06:36:26;2.80;95.20
20815;DHT22;10568;48.176;16.316;2023-04-05T06:38:52;2.50;95.00
20815;DHT22;10568;48.176;16.316;2023-04-05T06:41:18;2.40;95.20
20815;DHT22;10568;48.176;16.316;2023-04-05T06:43:44;2.30;96.80
20815;DHT22;10568;48.176;16.316;2023-04-05T06:46:09;2.30;96.50
20815;DHT22;10568;48.176;16.316;2023-04-05T06:48:37;2.30;96.40
20815;DHT22;10568;48.176;16.316;2023-04-05T06:51:03;2.40;96.50
20815;DHT22;10568;48.176;16.316;2023-04-05T06:53:29;2.40;97.10
20815;DHT22;10568;48.176;16.316;2023-04-05T06:55:56;2.30;95.70
20815;DHT22;10568;48.176;16.316;2023-04-05T06:58:24;2.20;96.60
20815;DHT22;10568;48.176;16.316;2023-04-05T07:00:51;2.30;96.00
20815;DHT22;10568;48.176;16.316;2023-04-05T07:03:17;2.20;98.00
20815;DHT22;10568;48.176;16.316;2023-04-05T07:05:53;2.30;97.90
20815;DHT22;10568;48.176;16.316;2023-04-05T07:08:22;2.30;97.20
20815;DHT22;10568;48.176;16.316;2023-04-05T07:10:49;2.30;96.30
20815;DHT22;10568;48.176;16.316;2023-04-05T07:13:15;2.40;96.80
20815;DHT22;10568;48.176;16.316;2023-04-05T07:15:42;2.60;97.40
20815;DHT22;10568;48.176;16.316;2023-04-05T07:18:08;2.60;98.30
20815;DHT22;10568;48.176;16.316;2023-04-05T07:20:34;2.70;97.30
20815;DHT22;10568;48.176;16.316;2023-04-05T07:23:00;2.90;97.00
20815;DHT22;10568;48.176;16.316;2023-04-05T07:25:26;3.00;95.90
20815;DHT22;10568;48.176;16.316;2023-04-05T07:27:52;3.00;96.30
20815;DHT22;10568;48.176;16.316;2023-04-05T07:30:18;3.10;96.50
20815;DHT22;10568;48.176;16.316;2023-04-05T07:32:43;3.30;96.60
20815;DHT22;10568;48.176;16.316;2023-04-05T07:35:09;3.30;96.90
20815;DHT22;10568;48.176;16.316;2023-04-05T07:37:35;3.30;95.40
20815;DHT22;10568;48.176;16.316;2023-04-05T07:40:01;3.40;95.40
20815;DHT22;10568;48.176;16.316;2023-04-05T07:42:28;3.50;95.50
20815;DHT22;10568;48.176;16.316;2023-04-05T07:44:56;3.70;95.40
20815;DHT22;10568;48.176;16.316;2023-04-05T07:47:22;3.80;96.40
20815;DHT22;10568;48.176;16.316;2023-04-05T07:49:47;4.00;95.60
20815;DHT22;10568;48.176;16.316;2023-04-05T07:52:13;4.00;95.20
20815;DHT22;10568;48.176;16.316;2023-04-05T07:54:39;4.00;95.30
20815;DHT22;10568;48.176;16.316;2023-04-05T07:57:15;3.90;95.30
20815;DHT22;10568;48.176;16.316;2023-04-05T07:59:41;3.80;94.40
20815;DHT22;10568;48.176;16.316;2023-04-05T08:02:06;3.90;95.10
20815;DHT22;10568;48.176;16.316;2023-04-05T08:04:32;4.10;96.50
20815;DHT22;10568;48.176;16.316;2023-04-05T08:06:57;4.40;93.80
20815;DHT22;10568;48.176;16.316;2023-04-05T08:09:23;4.60;95.60
20815;DHT22;10568;48.176;16.316;2023-04-05T08:11:49;5.00;94.20
20815;DHT22;10568;48.176;16.316;2023-04-05T08:14:15;5.20;93.70
20815;DHT22;10568;48.176;16.316;2023-04-05T08:16:42;5.40;92.70
20815;DHT22;10568;48.176;16.316;2023-04-05T08:19:08;5.70;92.40
20815;DHT22;10568;48.176;16.316;2023-04-05T08:21:33;5.60;93.00
20815;DHT22;10568;48.176;16.316;2023-04-05T08:23:59;5.80;91.60
20815;DHT22;10568;48.176;16.316;2023-04-05T08:26:25;6.40;90.60
20815;DHT22;10568;48.176;16.316;2023-04-05T08:28:51;6.20;92.00
20815;DHT22;10568;48.176;16.316;2023-04-05T08:31:17;6.60;91.80
20815;DHT22;10568;48.176;16.316;2023-04-05T08:33:42;6.90;92.20
20815;DHT22;10568;48.176;16.316;2023-04-05T08:36:09;7.30;90.00
20815;DHT22;10568;48.176;16.316;2023-04-05T08:38:35;7.20;88.40
20815;DHT22;10568;48.176;16.316;2023-04-05T08:41:17;7.90;88.70
20815;DHT22;10568;48.176;16.316;2023-04-05T08:46:24;7.20;88.10
20815;DHT22;10568;48.176;16.316;2023-04-05T08:48:49;7.50;86.90
20815;DHT22;10568;48.176;16.316;2023-04-05T08:51:20;8.10;90.00
20815;DHT22;10568;48.176;16.316;2023-04-05T08:53:46;7.70;84.60
20815;DHT22;10568;48.176;16.316;2023-04-05T08:56:14;7.80;87.90
20815;DHT22;10568;48.176;16.316;2023-04-05T08:58:47;7.90;84.30
20815;DHT22;10568;48.176;16.316;2023-04-05T09:01:16;8.00;85.80
20815;DHT22;10568;48.176;16.316;2023-04-05T09:03:43;8.20;85.90
20815;DHT22;10568;48.176;16.316;2023-04-05T09:06:09;8.30;80.20
20815;DHT22;10568;48.176;16.316;2023-04-05T09:08:37;8.40;84.90
20815;DHT22;10568;48.176;16.316;2023-04-05T09:11:03;8.80;81.80
20815;DHT22;10568;48.176;16.316;2023-04-05T09:13:30;8.90;83.50
20815;DHT22;10568;48.176;16.316;2023-04-05T09:15:56;9.30;83.90
20815;DHT22;10568;48.176;16.316;2023-04-05T09:18:21;9.00;79.60
20815;DHT22;10568;48.176;16.316;2023-04-05T09:20:47;9.00;80.00
20815;DHT22;10568;48.176;16.316;2023-04-05T09:23:13;9.10;78.60
20815;DHT22;10568;48.176;16.316;2023-04-05T09:25:39;9.30;80.20
20815;DHT22;10568;48.176;16.316;2023-04-05T09:28:07;9.30;76.50
20815;DHT22;10568;48.176;16.316;2023-04-05T09:30:34;9.40;83.50
20815;DHT22;10568;48.176;16.316;2023-04-05T09:33:02;9.50;79.90
20815;DHT22;10568;48.176;16.316;2023-04-05T09:35:30;9.90;77.90
20815;DHT22;10568;48.176;16.316;2023-04-05T09:38:00;9.60;76.50
20815;DHT22;10568;48.176;16.316;2023-04-05T09:40:46;9.70;81.80
20815;DHT22;10568;48.176;16.316;2023-04-05T09:43:34;9.10;75.10
20815;DHT22;10568;48.176;16.316;2023-04-05T09:45:58;8.40;73.70
20815;DHT22;10568;48.176;16.316;2023-04-05T09:48:48;8.40;80.70
20815;DHT22;10568;48.176;16.316;2023-04-05T09:51:17;8.50;78.00
20815;DHT22;10568;48.176;16.316;2023-04-05T09:54:08;8.50;77.00
20815;DHT22;10568;48.176;16.316;2023-04-05T09:56:39;9.30;80.40
20815;DHT22;10568;48.176;16.316;2023-04-05T09:59:09;9.90;84.30
20815;DHT22;10568;48.176;16.316;2023-04-05T10:01:37;9.90;74.90
20815;DHT22;10568;48.176;16.316;2023-04-05T10:04:03;9.70;79.40
20815;DHT22;10568;48.176;16.316;2023-04-05T10:06:39;8.80;73.40
20815;DHT22;10568;48.176;16.316;2023-04-05T10:09:08;8.80;75.70
20815;DHT22;10568;48.176;16.316;2023-04-05T10:11:35;8.50;74.80
20815;DHT22;10568;48.176;16.316;2023-04-05T10:14:05;8.00;75.60
20815;DHT22;10568;48.176;16.316;2023-04-05T10:16:32;8.40;74.80
20815;DHT22;10568;48.176;16.316;2023-04-05T10:19:01;8.20;75.10
20815;DHT22;10568;48.176;16.316;2023-04-05T10:21:33;8.40;79.20
20815;DHT22;10568;48.176;16.316;2023-04-05T10:27:19;9.10;73.70
20815;DHT22;10568;48.176;16.316;2023-04-05T10:30:06;8.50;75.00
20815;DHT22;10568;48.176;16.316;2023-04-05T10:33:46;8.50;73.40
20815;DHT22;10568;48.176;16.316;2023-04-05T10:35:49;9.40;80.50
20815;DHT22;10568;48.176;16.316;2023-04-05T10:38:26;9.80;76.70
20815;DHT22;10568;48.176;16.316;2023-04-05T10:41:04;10.80;79.40
20815;DHT22;10568;48.176;16.316;2023-04-05T10:43:34;11.10;73.20
20815;DHT22;10568;48.176;16.316;2023-04-05T10:46:02;10.70;73.60
20815;DHT22;10568;48.176;16.316;2023-04-05T10:48:50;9.80;72.70
20815;DHT22;10568;48.176;16.316;2023-04-05T10:51:19;9.10;73.90
20815;DHT22;10568;48.176;16.316;2023-04-05T10:53:48;9.30;74.90
20815;DHT22;10568;48.176;16.316;2023-04-05T10:56:15;9.30;73.40
20815;DHT22;10568;48.176;16.316;2023-04-05T10:58:42;9.50;75.90
20815;DHT22;10568;48.176;16.316;2023-04-05T11:01:08;9.10;73.00
20815;DHT22;10568;48.176;16.316;2023-04-05T11:04:13;9.20;75.80
20815;DHT22;10568;48.176;16.316;2023-04-05T11:06:40;8.70;73.00
20815;DHT22;10568;48.176;16.316;2023-04-05T11:11:41;8.50;75.90
20815;DHT22;10568;48.176;16.316;2023-04-05T11:14:36;8.40;76.30
20815;DHT22;10568;48.176;16.316;2023-04-05T11:17:24;9.30;77.30
20815;DHT22;10568;48.176;16.316;2023-04-05T11:19:50;9.90;77.30
20815;DHT22;10568;48.176;16.316;2023-04-05T11:22:27;9.80;75.20
20815;DHT22;10568;48.176;16.316;2023-04-05T11:24:59;10.00;71.80
20815;DHT22;10568;48.176;16.316;2023-04-05T11:27:28;9.20;69.70
20815;DHT22;10568;48.176;16.316;2023-04-05T11:29:56;9.30;71.20
20815;DHT22;10568;48.176;16.316;2023-04-05T11:32:22;9.00;73.90
20815;DHT22;10568;48.176;16.316;2023-04-05T11:34:58;8.90;71.20
20815;DHT22;10568;48.176;16.316;2023-04-05T11:40:27;9.20;75.60
20815;DHT22;10568;48.176;16.316;2023-04-05T11:45:32;9.50;72.40
20815;DHT22;10568;48.176;16.316;2023-04-05T11:51:10;10.60;70.20
20815;DHT22;10568;48.176;16.316;2023-04-05T11:53:37;11.40;74.60
20815;DHT22;10568;48.176;16.316;2023-04-05T11:56:10;11.30;70.70
20815;DHT22;10568;48.176;16.316;2023-04-05T11:58:40;11.00;70.70
20815;DHT22;10568;48.176;16.316;2023-04-05T12:01:07;10.50;67.10
20815;DHT22;10568;48.176;16.316;2023-04-05T12:03:33;10.30;67.40
20815;DHT22;10568;48.176;16.316;2023-04-05T12:06:04;10.30;71.70
20815;DHT22;10568;48.176;16.316;2023-04-05T12:08:56;9.80;68.10
20815;DHT22;10568;48.176;16.316;2023-04-05T12:11:27;9.90;69.90
20815;DHT22;10568;48.176;16.316;2023-04-05T12:13:57;9.60;67.90
20815;DHT22;10568;48.176;16.316;2023-04-05T12:16:24;9.80;68.30
20815;DHT22;10568;48.176;16.316;2023-04-05T12:18:57;9.70;68.90
20815;DHT22;10568;48.176;16.316;2023-04-05T12:21:23;9.50;67.50
20815;DHT22;10568;48.176;16.316;2023-04-05T12:23:49;9.40;67.60
20815;DHT22;10568;48.176;16.316;2023-04-05T12:26:16;9.80;71.30
20815;DHT22;10568;48.176;16.316;2023-04-05T12:29:11;10.20;76.70
20815;DHT22;10568;48.176;16.316;2023-04-05T12:31:44;10.00;69.40
20815;DHT22;10568;48.176;16.316;2023-04-05T12:34:12;9.80;69.70
20815;DHT22;10568;48.176;16.316;2023-04-05T12:36:40;9.50;66.40
20815;DHT22;10568;48.176;16.316;2023-04-05T12:39:08;10.10;71.30
20815;DHT22;10568;48.176;16.316;2023-04-05T12:41:35;10.90;76.40
20815;DHT22;10568;48.176;16.316;2023-04-05T12:44:05;10.70;69.30
20815;DHT22;10568;48.176;16.316;2023-04-05T12:46:45;11.20;68.30
20815;DHT22;10568;48.176;16.316;2023-04-05T12:49:14;11.70;65.90
20815;DHT22;10568;48.176;16.316;2023-04-05T12:51:44;11.70;68.70
20815;DHT22;10568;48.176;16.316;2023-04-05T12:54:14;11.10;66.50
20815;DHT22;10568;48.176;16.316;2023-04-05T12:56:40;10.60;64.40
20815;DHT22;10568;48.176;16.316;2023-04-05T12:59:07;10.10;64.30
20815;DHT22;10568;48.176;16.316;2023-04-05T13:01:33;10.10;65.90
20815;DHT22;10568;48.176;16.316;2023-04-05T13:03:59;10.60;67.40
20815;DHT22;10568;48.176;16.316;2023-04-05T13:06:31;11.10;69.80
20815;DHT22;10568;48.176;16.316;2023-04-05T13:08:57;11.30;66.20
20815;DHT22;10568;48.176;16.316;2023-04-05T13:11:23;11.40;67.10
20815;DHT22;10568;48.176;16.316;2023-04-05T13:13:49;10.80;66.40
20815;DHT22;10568;48.176;16.316;2023-04-05T13:16:15;10.30;64.30
20815;DHT22;10568;48.176;16.316;2023-04-05T13:18:40;9.90;66.10
20815;DHT22;10568;48.176;16.316;2023-04-05T13:21:06;9.80;67.30
20815;DHT22;10568;48.176;16.316;2023-04-05T13:23:34;9.50;66.20
20815;DHT22;10568;48.176;16.316;2023-04-05T13:26:00;9.40;67.30
20815;DHT22;10568;48.176;16.316;2023-04-05T13:28:26;10.20;68.90
20815;DHT22;10568;48.176;16.316;2023-04-05T13:31:22;10.90;70.80
20815;DHT22;10568;48.176;16.316;2023-04-05T13:33:48;11.10;68.50
20815;DHT22;10568;48.176;16.316;2023-04-05T13:36:14;11.00;65.40
20815;DHT22;10568;48.176;16.316;2023-04-05T13:38:39;10.60;65.50
20815;DHT22;10568;48.176;16.316;2023-04-05T13:41:05;10.30;66.40
20815;DHT22;10568;48.176;16.316;2023-04-05T13:43:31;10.20;65.90
20815;DHT22;10568;48.176;16.316;2023-04-05T13:45:57;10.20;67.80
20815;DHT22;10568;48.176;16.316;2023-04-05T13:48:22;10.20;65.90
20815;DHT22;10568;48.176;16.316;2023-04-05T13:50:48;9.90;64.40
20815;DHT22;10568;48.176;16.316;2023-04-05T13:53:14;9.60;66.00
20815;DHT22;10568;48.176;16.316;2023-04-05T13:55:39;9.60;66.90
20815;DHT22;10568;48.176;16.316;2023-04-05T13:58:05;9.40;67.00
20815;DHT22;10568;48.176;16.316;2023-04-05T14:00:31;8.90;66.80
20815;DHT22;10568;48.176;16.316;2023-04-05T14:02:56;8.90;68.10
20815;DHT22;10568;48.176;16.316;2023-04-05T14:05:22;9.20;71.60
20815;DHT22;10568;48.176;16.316;2023-04-05T14:07:48;9.60;70.10
20815;DHT22;10568;48.176;16.316;2023-04-05T14:10:14;9.40;69.00
20815;DHT22;10568;48.176;16.316;2023-04-05T14:12:41;9.40;67.60
20815;DHT22;10568;48.176;16.316;2023-04-05T14:15:07;9.20;66.60
20815;DHT22;10568;48.176;16.316;2023-04-05T14:17:33;9.20;68.60
20815;DHT22;10568;48.176;16.316;2023-04-05T14:19:58;9.10;71.40
20815;DHT22;10568;48.176;16.316;2023-04-05T14:22:24;9.00;69.20
20815;DHT22;10568;48.176;16.316;2023-04-05T14:24:50;9.20;68.80
20815;DHT22;10568;48.176;16.316;2023-04-05T14:27:16;9.00;71.20
20815;DHT22;10568;48.176;16.316;2023-04-05T14:29:41;9.10;68.50
20815;DHT22;10568;48.176;16.316;2023-04-05T14:32:09;9.00;67.50
20815;DHT22;10568;48.176;16.316;2023-04-05T14:34:35;9.20;69.50
20815;DHT22;10568;48.176;16.316;2023-04-05T14:37:01;9.00;68.40
20815;DHT22;10568;48.176;16.316;2023-04-05T14:39:28;9.00;71.20
20815;DHT22;10568;48.176;16.316;2023-04-05T14:41:54;8.90;69.00
20815;DHT22;10568;48.176;16.316;2023-04-05T14:44:20;8.80;68.60
20815;DHT22;10568;48.176;16.316;2023-04-05T14:46:46;8.70;69.10
20815;DHT22;10568;48.176;16.316;2023-04-05T14:49:12;8.80;68.30
20815;DHT22;10568;48.176;16.316;2023-04-05T14:51:38;8.60;67.90
20815;DHT22;10568;48.176;16.316;2023-04-05T14:54:05;8.50;67.80
20815;DHT22;10568;48.176;16.316;2023-04-05T14:56:31;8.40;67.50
20815;DHT22;10568;48.176;16.316;2023-04-05T14:58:56;8.40;69.20
20815;DHT22;10568;48.176;16.316;2023-04-05T15:01:24;8.30;68.30
20815;DHT22;10568;48.176;16.316;2023-04-05T15:03:49;8.40;68.80
20815;DHT22;10568;48.176;16.316;2023-04-05T15:06:15;8.40;69.00
20815;DHT22;10568;48.176;16.316;2023-04-05T15:08:41;8.40;68.20
20815;DHT22;10568;48.176;16.316;2023-04-05T15:11:07;8.50;69.70
20815;DHT22;10568;48.176;16.316;2023-04-05T15:13:32;8.50;67.40
20815;DHT22;10568;48.176;16.316;2023-04-05T15:15:58;8.40;68.80
20815;DHT22;10568;48.176;16.316;2023-04-05T15:18:24;8.30;67.80
20815;DHT22;10568;48.176;16.316;2023-04-05T15:20:49;8.20;69.50
20815;DHT22;10568;48.176;16.316;2023-04-05T15:23:15;8.20;69.20
20815;DHT22;10568;48.176;16.316;2023-04-05T15:25:41;8.20;69.70
20815;DHT22;10568;48.176;16.316;2023-04-05T15:28:06;8.00;70.40
20815;DHT22;10568;48.176;16.316;2023-04-05T15:30:32;8.00;70.00
20815;DHT22;10568;48.176;16.316;2023-04-05T15:32:58;7.90;70.00
20815;DHT22;10568;48.176;16.316;2023-04-05T15:35:23;8.00;69.90
20815;DHT22;10568;48.176;16.316;2023-04-05T15:37:49;7.80;70.20
20815;DHT22;10568;48.176;16.316;2023-04-05T15:40:15;7.80;70.30
20815;DHT22;10568;48.176;16.316;2023-04-05T15:42:41;7.60;69.30
20815;DHT22;10568;48.176;16.316;2023-04-05T15:45:07;7.60;69.20
20815;DHT22;10568;48.176;16.316;2023-04-05T15:47:33;7.50;68.60
20815;DHT22;10568;48.176;16.316;2023-04-05T15:49:58;7.40;70.40
20815;DHT22;10568;48.176;16.316;2023-04-05T15:52:24;7.30;69.70
20815;DHT22;10568;48.176;16.316;2023-04-05T15:54:50;7.30;71.80
20815;DHT22;10568;48.176;16.316;2023-04-05T15:57:16;7.30;71.30
20815;DHT22;10568;48.176;16.316;2023-04-05T15:59:41;7.30;70.30
20815;DHT22;10568;48.176;16.316;2023-04-05T16:02:07;7.30;72.80
20815;DHT22;10568;48.176;16.316;2023-04-05T16:04:33;7.30;72.30